sensor_id;sensor_type;location;lat;lon;timestamp;temperature;humidity
44767;DHT22;30487;48.716;9.272;2022-08-19T00:01:03;22.20;96.00
44767;DHT22;30487;48.716;9.272;2022-08-19T00:03:30;22.20;96.10
44767;DHT22;30487;48.716;9.272;2022-08-19T00:05:55;22.20;96.10
44767;DHT22;30487;48.716;9.272;2022-08-19T00:08:21;22.20;96.30
44767;DHT22;30487;48.716;9.272;2022-08-19T00:10:46;22.30;96.30
44767;DHT22;30487;48.716;9.272;2022-08-19T00:13:13;22.20;96.50
44767;DHT22;30487;48.716;9.272;2022-08-19T00:15:38;22.20;96.60
44767;DHT22;30487;48.716;9.272;2022-08-19T00:18:04;22.20;97.20
44767;DHT22;30487;48.716;9.272;2022-08-19T00:20:29;22.20;97.50
44767;DHT22;30487;48.716;9.272;2022-08-19T00:22:55;22.10;97.40
44767;DHT22;30487;48.716;9.272;2022-08-19T00:25:20;22.10;97.70
44767;DHT22;30487;48.716;9.272;2022-08-19T00:27:46;22.10;98.10
44767;DHT22;30487;48.716;9.272;2022-08-19T00:30:13;22.00;98.00
44767;DHT22;30487;48.716;9.272;2022-08-19T00:32:38;22.00;98.00
44767;DHT22;30487;48.716;9.272;2022-08-19T00:35:04;21.90;98.40
44767;DHT22;30487;48.716;9.272;2022-08-19T00:37:30;21.90;98.10
44767;DHT22;30487;48.716;9.272;2022-08-19T00:39:55;21.90;98.00
44767;DHT22;30487;48.716;9.272;2022-08-19T00:42:21;21.90;98.30
44767;DHT22;30487;48.716;9.272;2022-08-19T00:44:47;21.90;98.30
44767;DHT22;30487;48.716;9.272;2022-08-19T00:47:13;21.90;98.60
44767;DHT22;30487;48.716;9.272;2022-08-19T00:49:43;21.90;98.70
44767;DHT22;30487;48.716;9.272;2022-08-19T00:52:12;21.90;98.60
44767;DHT22;30487;48.716;9.272;2022-08-19T00:54:39;21.90;98.70
44767;DHT22;30487;48.716;9.272;2022-08-19T00:57:06;21.90;98.90
44767;DHT22;30487;48.716;9.272;2022-08-19T00:59:33;21.90;99.20
44767;DHT22;30487;48.716;9.272;2022-08-19T01:02:00;21.90;99.10
44767;DHT22;30487;48.716;9.272;2022-08-19T01:04:26;21.80;99.10
44767;DHT22;30487;48.716;9.272;2022-08-19T01:06:52;21.80;99.20
44767;DHT22;30487;48.716;9.272;2022-08-19T01:09:17;21.80;99.40
44767;DHT22;30487;48.716;9.272;2022-08-19T01:11:43;21.80;99.70
44767;DHT22;30487;48.716;9.272;2022-08-19T01:14:10;21.70;99.70
44767;DHT22;30487;48.716;9.272;2022-08-19T01:16:36;21.70;99.90
44767;DHT22;30487;48.716;9.272;2022-08-19T01:19:03;21.70;99.90
44767;DHT22;30487;48.716;9.272;2022-08-19T01:21:34;21.70;99.90
44767;DHT22;30487;48.716;9.272;2022-08-19T01:24:03;21.70;99.90
44767;DHT22;30487;48.716;9.272;2022-08-19T01:26:28;21.70;99.90
44767;DHT22;30487;48.716;9.272;2022-08-19T01:28:55;21.60;99.90
44767;DHT22;30487;48.716;9.272;2022-08-19T01:31:24;21.60;99.90
44767;DHT22;30487;48.716;9.272;2022-08-19T01:33:51;21.60;99.90
44767;DHT22;30487;48.716;9.272;2022-08-19T01:36:24;21.60;99.90
44767;DHT22;30487;48.716;9.272;2022-08-19T01:38:51;21.60;99.90
44767;DHT22;30487;48.716;9.272;2022-08-19T01:41:17;21.60;99.90
44767;DHT22;30487;48.716;9.272;2022-08-19T01:43:43;21.50;99.90
44767;DHT22;30487;48.716;9.272;2022-08-19T01:46:08;21.60;99.90
44767;DHT22;30487;48.716;9.272;2022-08-19T01:48:35;21.60;99.90
44767;DHT22;30487;48.716;9.272;2022-08-19T01:51:01;21.50;99.90
44767;DHT22;30487;48.716;9.272;2022-08-19T01:53:27;21.60;99.90
44767;DHT22;30487;48.716;9.272;2022-08-19T01:55:52;21.50;99.90
44767;DHT22;30487;48.716;9.272;2022-08-19T01:58:20;21.60;99.90
44767;DHT22;30487;48.716;9.272;2022-08-19T02:00:46;21.60;99.90
44767;DHT22;30487;48.716;9.272;2022-08-19T02:03:12;21.60;99.90
44767;DHT22;30487;48.716;9.272;2022-08-19T02:05:38;21.50;99.90
44767;DHT22;30487;48.716;9.272;2022-08-19T02:08:03;21.50;99.90
44767;DHT22;30487;48.716;9.272;2022-08-19T02:10:29;21.50;99.90
44767;DHT22;30487;48.716;9.272;2022-08-19T02:12:54;21.50;99.90
44767;DHT22;30487;48.716;9.272;2022-08-19T02:15:20;21.50;99.90
44767;DHT22;30487;48.716;9.272;2022-08-19T02:17:47;21.50;99.90
44767;DHT22;30487;48.716;9.272;2022-08-19T02:20:13;21.50;99.90
44767;DHT22;30487;48.716;9.272;2022-08-19T02:22:39;21.40;99.90
44767;DHT22;30487;48.716;9.272;2022-08-19T02:25:06;21.50;99.90
44767;DHT22;30487;48.716;9.272;2022-08-19T02:27:32;21.40;99.90
44767;DHT22;30487;48.716;9.272;2022-08-19T02:29:58;21.40;99.90
44767;DHT22;30487;48.716;9.272;2022-08-19T02:32:24;21.40;99.90
44767;DHT22;30487;48.716;9.272;2022-08-19T02:34:50;21.40;99.90
44767;DHT22;30487;48.716;9.272;2022-08-19T02:37:15;21.40;99.90
44767;DHT22;30487;48.716;9.272;2022-08-19T02:39:59;21.40;99.90
44767;DHT22;30487;48.716;9.272;2022-08-19T02:42:24;21.40;99.90
44767;DHT22;30487;48.716;9.272;2022-08-19T02:44:50;21.40;99.90
44767;DHT22;30487;48.716;9.272;2022-08-19T02:47:18;21.40;99.90
44767;DHT22;30487;48.716;9.272;2022-08-19T02:49:44;21.40;99.90
44767;DHT22;30487;48.716;9.272;2022-08-19T02:52:10;21.40;99.90
44767;DHT22;30487;48.716;9.272;2022-08-19T02:54:36;21.40;99.90
44767;DHT22;30487;48.716;9.272;2022-08-19T02:57:02;21.40;99.90
44767;DHT22;30487;48.716;9.272;2022-08-19T02:59:29;21.40;99.90
44767;DHT22;30487;48.716;9.272;2022-08-19T03:01:55;21.40;99.90
44767;DHT22;30487;48.716;9.272;2022-08-19T03:04:20;21.40;99.90
44767;DHT22;30487;48.716;9.272;2022-08-19T03:06:46;21.40;99.90
44767;DHT22;30487;48.716;9.272;2022-08-19T03:09:12;21.30;99.90
44767;DHT22;30487;48.716;9.272;2022-08-19T03:11:38;21.40;99.90
44767;DHT22;30487;48.716;9.272;2022-08-19T03:14:04;21.40;99.90
44767;DHT22;30487;48.716;9.272;2022-08-19T03:16:32;21.30;99.90
44767;DHT22;30487;48.716;9.272;2022-08-19T03:18:58;21.30;99.90
44767;DHT22;30487;48.716;9.272;2022-08-19T03:21:26;21.30;99.90
44767;DHT22;30487;48.716;9.272;2022-08-19T03:23:55;21.30;99.90
44767;DHT22;30487;48.716;9.272;2022-08-19T03:26:21;21.20;99.90
44767;DHT22;30487;48.716;9.272;2022-08-19T03:28:47;21.20;99.90
44767;DHT22;30487;48.716;9.272;2022-08-19T03:31:15;21.20;99.90
44767;DHT22;30487;48.716;9.272;2022-08-19T03:33:41;21.20;99.90
44767;DHT22;30487;48.716;9.272;2022-08-19T03:38:34;21.30;99.90
44767;DHT22;30487;48.716;9.272;2022-08-19T03:41:07;21.20;99.90
44767;DHT22;30487;48.716;9.272;2022-08-19T03:43:37;21.20;99.90
44767;DHT22;30487;48.716;9.272;2022-08-19T03:46:04;21.20;99.90
44767;DHT22;30487;48.716;9.272;2022-08-19T03:48:31;21.10;99.90
44767;DHT22;30487;48.716;9.272;2022-08-19T03:50:57;21.10;99.90
44767;DHT22;30487;48.716;9.272;2022-08-19T03:53:24;21.10;99.90
44767;DHT22;30487;48.716;9.272;2022-08-19T03:55:51;21.00;99.90
44767;DHT22;30487;48.716;9.272;2022-08-19T03:58:16;20.90;99.90
44767;DHT22;30487;48.716;9.272;2022-08-19T04:00:42;21.00;99.90
44767;DHT22;30487;48.716;9.272;2022-08-19T04:03:08;21.00;99.90
44767;DHT22;30487;48.716;9.272;2022-08-19T04:05:33;21.00;99.90
44767;DHT22;30487;48.716;9.272;2022-08-19T04:07:59;20.90;99.90
44767;DHT22;30487;48.716;9.272;2022-08-19T04:10:26;21.00;99.90
44767;DHT22;30487;48.716;9.272;2022-08-19T04:12:52;21.00;99.90
44767;DHT22;30487;48.716;9.272;2022-08-19T04:15:18;20.90;99.90
44767;DHT22;30487;48.716;9.272;2022-08-19T04:17:44;20.90;99.90
44767;DHT22;30487;48.716;9.272;2022-08-19T04:20:09;20.90;99.90
44767;DHT22;30487;48.716;9.272;2022-08-19T04:22:35;20.80;99.90
44767;DHT22;30487;48.716;9.272;2022-08-19T04:25:00;20.90;99.90
44767;DHT22;30487;48.716;9.272;2022-08-19T04:27:26;20.80;99.90
44767;DHT22;30487;48.716;9.272;2022-08-19T04:29:51;20.90;99.90
44767;DHT22;30487;48.716;9.272;2022-08-19T04:32:19;20.90;99.90
44767;DHT22;30487;48.716;9.272;2022-08-19T04:34:46;20.90;99.90
44767;DHT22;30487;48.716;9.272;2022-08-19T04:37:12;20.90;99.90
44767;DHT22;30487;48.716;9.272;2022-08-19T04:39:38;20.90;99.90
44767;DHT22;30487;48.716;9.272;2022-08-19T04:42:23;20.90;99.90
44767;DHT22;30487;48.716;9.272;2022-08-19T04:45:04;20.90;99.90
44767;DHT22;30487;48.716;9.272;2022-08-19T04:47:30;20.90;99.90
44767;DHT22;30487;48.716;9.272;2022-08-19T04:49:58;20.90;99.90
44767;DHT22;30487;48.716;9.272;2022-08-19T04:52:23;20.90;99.90
44767;DHT22;30487;48.716;9.272;2022-08-19T04:54:49;20.90;99.90
44767;DHT22;30487;48.716;9.272;2022-08-19T04:57:14;21.00;99.90
44767;DHT22;30487;48.716;9.272;2022-08-19T04:59:40;20.90;99.90
44767;DHT22;30487;48.716;9.272;2022-08-19T05:02:06;21.00;99.90
44767;DHT22;30487;48.716;9.272;2022-08-19T05:04:32;21.00;99.90
44767;DHT22;30487;48.716;9.272;2022-08-19T05:06:59;20.90;99.90
44767;DHT22;30487;48.716;9.272;2022-08-19T05:09:25;20.90;99.90
44767;DHT22;30487;48.716;9.272;2022-08-19T05:11:51;20.90;99.90
44767;DHT22;30487;48.716;9.272;2022-08-19T05:14:18;20.90;99.90
44767;DHT22;30487;48.716;9.272;2022-08-19T05:16:44;20.90;99.90
44767;DHT22;30487;48.716;9.272;2022-08-19T05:19:10;21.00;99.90
44767;DHT22;30487;48.716;9.272;2022-08-19T05:21:54;20.90;99.90
44767;DHT22;30487;48.716;9.272;2022-08-19T05:24:38;21.00;99.90
44767;DHT22;30487;48.716;9.272;2022-08-19T05:27:04;20.90;99.90
44767;DHT22;30487;48.716;9.272;2022-08-19T05:29:30;20.90;99.90
44767;DHT22;30487;48.716;9.272;2022-08-19T05:31:56;20.90;99.90
44767;DHT22;30487;48.716;9.272;2022-08-19T05:34:23;21.00;99.90
44767;DHT22;30487;48.716;9.272;2022-08-19T05:36:55;20.90;99.90
44767;DHT22;30487;48.716;9.272;2022-08-19T05:39:23;20.90;99.90
44767;DHT22;30487;48.716;9.272;2022-08-19T05:41:50;20.90;99.90
44767;DHT22;30487;48.716;9.272;2022-08-19T05:44:16;20.90;99.90
44767;DHT22;30487;48.716;9.272;2022-08-19T05:46:45;20.90;99.90
44767;DHT22;30487;48.716;9.272;2022-08-19T05:49:14;20.90;99.90
44767;DHT22;30487;48.716;9.272;2022-08-19T05:51:41;20.80;99.90
44767;DHT22;30487;48.716;9.272;2022-08-19T05:54:06;20.90;99.90
44767;DHT22;30487;48.716;9.272;2022-08-19T05:56:33;20.90;99.90
44767;DHT22;30487;48.716;9.272;2022-08-19T05:59:03;20.90;99.90
44767;DHT22;30487;48.716;9.272;2022-08-19T06:01:34;20.90;99.90
44767;DHT22;30487;48.716;9.272;2022-08-19T06:04:00;20.90;99.90
44767;DHT22;30487;48.716;9.272;2022-08-19T06:06:25;20.90;99.90
44767;DHT22;30487;48.716;9.272;2022-08-19T06:08:51;20.90;99.90
44767;DHT22;30487;48.716;9.272;2022-08-19T06:13:49;20.90;99.90
44767;DHT22;30487;48.716;9.272;2022-08-19T06:16:21;20.90;99.90
44767;DHT22;30487;48.716;9.272;2022-08-19T06:18:54;20.90;99.90
44767;DHT22;30487;48.716;9.272;2022-08-19T06:21:20;20.90;99.90
44767;DHT22;30487;48.716;9.272;2022-08-19T06:23:46;20.90;99.90
44767;DHT22;30487;48.716;9.272;2022-08-19T06:26:13;20.90;99.90
44767;DHT22;30487;48.716;9.272;2022-08-19T06:28:38;21.00;99.90
44767;DHT22;30487;48.716;9.272;2022-08-19T06:31:08;20.90;99.90
44767;DHT22;30487;48.716;9.272;2022-08-19T06:33:34;20.90;99.90
44767;DHT22;30487;48.716;9.272;2022-08-19T06:36:00;20.90;99.90
44767;DHT22;30487;48.716;9.272;2022-08-19T06:38:25;21.00;99.90
44767;DHT22;30487;48.716;9.272;2022-08-19T06:40:51;20.90;99.90
44767;DHT22;30487;48.716;9.272;2022-08-19T06:43:16;20.90;99.90
44767;DHT22;30487;48.716;9.272;2022-08-19T06:45:41;20.90;99.90
44767;DHT22;30487;48.716;9.272;2022-08-19T06:48:07;20.90;99.90
44767;DHT22;30487;48.716;9.272;2022-08-19T06:50:33;20.90;99.90
44767;DHT22;30487;48.716;9.272;2022-08-19T06:52:58;20.90;99.90
44767;DHT22;30487;48.716;9.272;2022-08-19T06:55:23;20.90;99.90
44767;DHT22;30487;48.716;9.272;2022-08-19T06:57:49;20.90;99.90
44767;DHT22;30487;48.716;9.272;2022-08-19T07:00:18;20.90;99.90
44767;DHT22;30487;48.716;9.272;2022-08-19T07:02:43;20.90;99.90
44767;DHT22;30487;48.716;9.272;2022-08-19T07:05:09;20.90;99.90
44767;DHT22;30487;48.716;9.272;2022-08-19T07:07:35;20.90;99.90
44767;DHT22;30487;48.716;9.272;2022-08-19T07:10:00;21.00;99.90
44767;DHT22;30487;48.716;9.272;2022-08-19T07:12:26;21.00;99.90
44767;DHT22;30487;48.716;9.272;2022-08-19T07:14:52;21.00;99.90
44767;DHT22;30487;48.716;9.272;2022-08-19T07:17:18;21.00;99.90
44767;DHT22;30487;48.716;9.272;2022-08-19T07:19:45;21.10;99.90
44767;DHT22;30487;48.716;9.272;2022-08-19T07:22:11;21.10;99.90
44767;DHT22;30487;48.716;9.272;2022-08-19T07:24:37;21.10;99.90
44767;DHT22;30487;48.716;9.272;2022-08-19T07:27:04;21.10;99.90
44767;DHT22;30487;48.716;9.272;2022-08-19T07:29:31;21.00;99.90
44767;DHT22;30487;48.716;9.272;2022-08-19T07:31:58;21.00;99.90
44767;DHT22;30487;48.716;9.272;2022-08-19T07:34:24;21.00;99.90
44767;DHT22;30487;48.716;9.272;2022-08-19T07:36:51;21.00;99.90
44767;DHT22;30487;48.716;9.272;2022-08-19T07:39:18;21.00;99.90
44767;DHT22;30487;48.716;9.272;2022-08-19T07:41:45;20.90;99.90
44767;DHT22;30487;48.716;9.272;2022-08-19T07:44:11;20.90;99.90
44767;DHT22;30487;48.716;9.272;2022-08-19T07:46:37;20.80;99.90
44767;DHT22;30487;48.716;9.272;2022-08-19T07:49:03;20.80;99.90
44767;DHT22;30487;48.716;9.272;2022-08-19T07:51:29;20.80;99.90
44767;DHT22;30487;48.716;9.272;2022-08-19T07:53:54;20.70;99.90
44767;DHT22;30487;48.716;9.272;2022-08-19T07:56:20;20.70;99.90
44767;DHT22;30487;48.716;9.272;2022-08-19T07:58:47;20.60;99.90
44767;DHT22;30487;48.716;9.272;2022-08-19T08:01:15;20.60;99.90
44767;DHT22;30487;48.716;9.272;2022-08-19T08:03:41;20.60;99.90
44767;DHT22;30487;48.716;9.272;2022-08-19T08:06:25;20.60;99.90
44767;DHT22;30487;48.716;9.272;2022-08-19T08:09:09;20.60;99.90
44767;DHT22;30487;48.716;9.272;2022-08-19T08:14:49;20.50;99.90
44767;DHT22;30487;48.716;9.272;2022-08-19T08:17:07;20.40;99.90
44767;DHT22;30487;48.716;9.272;2022-08-19T08:19:33;20.50;99.90
44767;DHT22;30487;48.716;9.272;2022-08-19T08:21:59;20.50;99.90
44767;DHT22;30487;48.716;9.272;2022-08-19T08:24:26;20.60;99.90
44767;DHT22;30487;48.716;9.272;2022-08-19T08:26:52;20.50;99.90
44767;DHT22;30487;48.716;9.272;2022-08-19T08:29:17;20.60;99.90
44767;DHT22;30487;48.716;9.272;2022-08-19T08:31:45;20.60;99.90
44767;DHT22;30487;48.716;9.272;2022-08-19T08:34:11;20.70;99.90
44767;DHT22;30487;48.716;9.272;2022-08-19T08:36:37;20.70;99.90
44767;DHT22;30487;48.716;9.272;2022-08-19T08:39:10;20.70;99.90
44767;DHT22;30487;48.716;9.272;2022-08-19T08:41:44;20.70;99.90
44767;DHT22;30487;48.716;9.272;2022-08-19T08:44:16;20.70;99.90
44767;DHT22;30487;48.716;9.272;2022-08-19T08:46:45;20.70;99.90
44767;DHT22;30487;48.716;9.272;2022-08-19T08:51:46;20.80;99.90
44767;DHT22;30487;48.716;9.272;2022-08-19T08:54:14;20.80;99.90
44767;DHT22;30487;48.716;9.272;2022-08-19T08:56:42;20.90;99.90
44767;DHT22;30487;48.716;9.272;2022-08-19T09:01:40;21.00;99.90
44767;DHT22;30487;48.716;9.272;2022-08-19T09:04:05;21.00;99.90
44767;DHT22;30487;48.716;9.272;2022-08-19T09:06:36;21.00;99.90
44767;DHT22;30487;48.716;9.272;2022-08-19T09:09:04;21.00;99.90
44767;DHT22;30487;48.716;9.272;2022-08-19T09:16:47;21.00;99.90
44767;DHT22;30487;48.716;9.272;2022-08-19T09:19:14;21.00;99.90
44767;DHT22;30487;48.716;9.272;2022-08-19T09:21:41;21.00;99.90
44767;DHT22;30487;48.716;9.272;2022-08-19T09:24:06;21.00;99.90
44767;DHT22;30487;48.716;9.272;2022-08-19T09:26:32;21.00;99.90
44767;DHT22;30487;48.716;9.272;2022-08-19T09:28:58;21.00;99.90
44767;DHT22;30487;48.716;9.272;2022-08-19T09:31:25;21.00;99.90
44767;DHT22;30487;48.716;9.272;2022-08-19T09:33:51;21.00;99.90
44767;DHT22;30487;48.716;9.272;2022-08-19T09:36:18;21.00;99.90
44767;DHT22;30487;48.716;9.272;2022-08-19T09:38:44;21.00;99.90
44767;DHT22;30487;48.716;9.272;2022-08-19T09:41:17;21.00;99.90
44767;DHT22;30487;48.716;9.272;2022-08-19T09:43:45;21.00;99.90
44767;DHT22;30487;48.716;9.272;2022-08-19T09:46:11;21.00;99.90
44767;DHT22;30487;48.716;9.272;2022-08-19T09:48:37;21.00;99.90
44767;DHT22;30487;48.716;9.272;2022-08-19T09:51:04;21.00;99.90
44767;DHT22;30487;48.716;9.272;2022-08-19T09:53:30;21.00;99.90
44767;DHT22;30487;48.716;9.272;2022-08-19T09:55:55;21.00;99.90
44767;DHT22;30487;48.716;9.272;2022-08-19T09:58:21;21.00;99.90
44767;DHT22;30487;48.716;9.272;2022-08-19T10:00:47;21.00;99.90
44767;DHT22;30487;48.716;9.272;2022-08-19T10:03:13;21.00;99.90
44767;DHT22;30487;48.716;9.272;2022-08-19T10:05:38;21.00;99.90
44767;DHT22;30487;48.716;9.272;2022-08-19T10:08:13;21.00;99.90
44767;DHT22;30487;48.716;9.272;2022-08-19T10:10:40;21.00;99.90
44767;DHT22;30487;48.716;9.272;2022-08-19T10:13:08;21.10;99.90
44767;DHT22;30487;48.716;9.272;2022-08-19T10:15:34;21.00;99.90
44767;DHT22;30487;48.716;9.272;2022-08-19T10:18:00;21.10;99.90
44767;DHT22;30487;48.716;9.272;2022-08-19T10:20:25;21.00;99.90
44767;DHT22;30487;48.716;9.272;2022-08-19T10:22:51;21.00;99.90
44767;DHT22;30487;48.716;9.272;2022-08-19T10:25:16;21.00;99.90
44767;DHT22;30487;48.716;9.272;2022-08-19T10:27:42;21.00;99.90
44767;DHT22;30487;48.716;9.272;2022-08-19T10:30:08;21.00;99.90
44767;DHT22;30487;48.716;9.272;2022-08-19T10:32:34;21.00;99.90
44767;DHT22;30487;48.716;9.272;2022-08-19T10:34:59;21.00;99.90
44767;DHT22;30487;48.716;9.272;2022-08-19T10:37:25;21.10;99.90
44767;DHT22;30487;48.716;9.272;2022-08-19T10:39:51;21.10;99.90
44767;DHT22;30487;48.716;9.272;2022-08-19T10:42:16;21.10;99.90
44767;DHT22;30487;48.716;9.272;2022-08-19T10:44:43;21.20;99.90
44767;DHT22;30487;48.716;9.272;2022-08-19T10:47:09;21.20;99.90
44767;DHT22;30487;48.716;9.272;2022-08-19T10:49:34;21.20;99.90
44767;DHT22;30487;48.716;9.272;2022-08-19T10:52:20;21.30;99.90
44767;DHT22;30487;48.716;9.272;2022-08-19T10:55:05;21.40;99.90
44767;DHT22;30487;48.716;9.272;2022-08-19T10:57:49;21.40;99.90
44767;DHT22;30487;48.716;9.272;2022-08-19T11:00:15;21.30;99.90
44767;DHT22;30487;48.716;9.272;2022-08-19T11:02:40;21.30;99.90
44767;DHT22;30487;48.716;9.272;2022-08-19T11:05:07;21.10;99.90
44767;DHT22;30487;48.716;9.272;2022-08-19T11:07:36;21.20;99.90
44767;DHT22;30487;48.716;9.272;2022-08-19T11:10:03;21.20;99.90
44767;DHT22;30487;48.716;9.272;2022-08-19T11:12:28;21.10;99.90
44767;DHT22;30487;48.716;9.272;2022-08-19T11:14:54;21.00;99.90
44767;DHT22;30487;48.716;9.272;2022-08-19T11:17:19;21.00;99.90
44767;DHT22;30487;48.716;9.272;2022-08-19T11:19:48;21.00;99.90
44767;DHT22;30487;48.716;9.272;2022-08-19T11:22:14;21.00;99.90
44767;DHT22;30487;48.716;9.272;2022-08-19T11:24:40;21.10;99.90
44767;DHT22;30487;48.716;9.272;2022-08-19T11:27:06;21.10;99.90
44767;DHT22;30487;48.716;9.272;2022-08-19T11:29:34;21.10;99.90
44767;DHT22;30487;48.716;9.272;2022-08-19T11:32:02;21.10;99.90
44767;DHT22;30487;48.716;9.272;2022-08-19T11:34:28;21.00;99.90
44767;DHT22;30487;48.716;9.272;2022-08-19T11:36:55;21.00;99.90
44767;DHT22;30487;48.716;9.272;2022-08-19T11:39:24;20.90;99.90
44767;DHT22;30487;48.716;9.272;2022-08-19T11:41:50;20.90;99.90
44767;DHT22;30487;48.716;9.272;2022-08-19T11:44:15;20.90;99.90
44767;DHT22;30487;48.716;9.272;2022-08-19T11:46:42;20.90;99.90
44767;DHT22;30487;48.716;9.272;2022-08-19T11:49:11;21.00;99.90
44767;DHT22;30487;48.716;9.272;2022-08-19T11:51:37;21.00;99.90
44767;DHT22;30487;48.716;9.272;2022-08-19T11:54:04;20.90;99.90
44767;DHT22;30487;48.716;9.272;2022-08-19T11:56:29;21.00;99.90
44767;DHT22;30487;48.716;9.272;2022-08-19T11:58:55;20.90;99.90
44767;DHT22;30487;48.716;9.272;2022-08-19T12:01:23;20.90;99.90
44767;DHT22;30487;48.716;9.272;2022-08-19T12:03:49;21.00;99.90
44767;DHT22;30487;48.716;9.272;2022-08-19T12:06:17;21.00;99.90
44767;DHT22;30487;48.716;9.272;2022-08-19T12:08:43;21.00;99.90
44767;DHT22;30487;48.716;9.272;2022-08-19T12:11:09;20.90;99.90
44767;DHT22;30487;48.716;9.272;2022-08-19T12:13:35;20.90;99.90
44767;DHT22;30487;48.716;9.272;2022-08-19T12:16:01;20.80;99.90
44767;DHT22;30487;48.716;9.272;2022-08-19T12:18:32;20.80;99.90
44767;DHT22;30487;48.716;9.272;2022-08-19T12:20:57;20.80;99.90
44767;DHT22;30487;48.716;9.272;2022-08-19T12:23:23;20.80;99.90
44767;DHT22;30487;48.716;9.272;2022-08-19T12:25:48;20.70;99.90
44767;DHT22;30487;48.716;9.272;2022-08-19T12:28:20;20.70;99.90
44767;DHT22;30487;48.716;9.272;2022-08-19T12:30:46;20.70;99.90
44767;DHT22;30487;48.716;9.272;2022-08-19T12:33:12;20.70;99.90
44767;DHT22;30487;48.716;9.272;2022-08-19T12:35:39;20.70;99.90
44767;DHT22;30487;48.716;9.272;2022-08-19T12:38:05;20.70;99.90
44767;DHT22;30487;48.716;9.272;2022-08-19T12:40:31;20.60;99.90
44767;DHT22;30487;48.716;9.272;2022-08-19T12:42:57;20.70;99.90
44767;DHT22;30487;48.716;9.272;2022-08-19T12:45:22;20.70;99.90
44767;DHT22;30487;48.716;9.272;2022-08-19T12:47:48;20.70;99.90
44767;DHT22;30487;48.716;9.272;2022-08-19T12:50:14;20.60;99.90
44767;DHT22;30487;48.716;9.272;2022-08-19T12:52:40;20.60;99.90
44767;DHT22;30487;48.716;9.272;2022-08-19T12:55:08;20.60;99.90
44767;DHT22;30487;48.716;9.272;2022-08-19T12:57:33;20.60;99.90
44767;DHT22;30487;48.716;9.272;2022-08-19T13:00:10;20.60;99.90
44767;DHT22;30487;48.716;9.272;2022-08-19T13:02:37;20.50;99.90
44767;DHT22;30487;48.716;9.272;2022-08-19T13:05:03;20.60;99.90
44767;DHT22;30487;48.716;9.272;2022-08-19T13:07:31;20.60;99.90
44767;DHT22;30487;48.716;9.272;2022-08-19T13:09:56;20.60;99.90
44767;DHT22;30487;48.716;9.272;2022-08-19T13:12:22;20.60;99.90
44767;DHT22;30487;48.716;9.272;2022-08-19T13:14:48;20.60;99.90
44767;DHT22;30487;48.716;9.272;2022-08-19T13:17:15;20.70;99.90
44767;DHT22;30487;48.716;9.272;2022-08-19T13:19:41;20.70;99.90
44767;DHT22;30487;48.716;9.272;2022-08-19T13:22:06;20.70;99.90
44767;DHT22;30487;48.716;9.272;2022-08-19T13:24:32;20.60;99.90
44767;DHT22;30487;48.716;9.272;2022-08-19T13:26:58;20.70;99.90
44767;DHT22;30487;48.716;9.272;2022-08-19T13:29:24;20.70;99.90
44767;DHT22;30487;48.716;9.272;2022-08-19T13:32:08;20.70;99.90
44767;DHT22;30487;48.716;9.272;2022-08-19T13:34:52;20.80;99.90
44767;DHT22;30487;48.716;9.272;2022-08-19T13:37:18;20.80;99.90
44767;DHT22;30487;48.716;9.272;2022-08-19T13:40:03;20.80;99.90
44767;DHT22;30487;48.716;9.272;2022-08-19T13:42:29;20.80;99.90
44767;DHT22;30487;48.716;9.272;2022-08-19T13:44:55;20.80;99.90
44767;DHT22;30487;48.716;9.272;2022-08-19T13:47:20;20.70;99.90
44767;DHT22;30487;48.716;9.272;2022-08-19T13:49:46;20.70;99.90
44767;DHT22;30487;48.716;9.272;2022-08-19T13:52:11;20.70;99.90
44767;DHT22;30487;48.716;9.272;2022-08-19T13:54:37;20.70;99.90
44767;DHT22;30487;48.716;9.272;2022-08-19T13:57:02;20.60;99.90
44767;DHT22;30487;48.716;9.272;2022-08-19T13:59:28;20.60;99.90
44767;DHT22;30487;48.716;9.272;2022-08-19T14:01:57;20.50;99.90
44767;DHT22;30487;48.716;9.272;2022-08-19T14:04:22;20.50;99.90
44767;DHT22;30487;48.716;9.272;2022-08-19T14:06:47;20.50;99.90
44767;DHT22;30487;48.716;9.272;2022-08-19T14:09:13;20.40;99.90
44767;DHT22;30487;48.716;9.272;2022-08-19T14:11:38;20.30;99.90
44767;DHT22;30487;48.716;9.272;2022-08-19T14:14:04;20.30;99.90
44767;DHT22;30487;48.716;9.272;2022-08-19T14:16:29;20.20;99.90
44767;DHT22;30487;48.716;9.272;2022-08-19T14:18:55;20.10;99.90
44767;DHT22;30487;48.716;9.272;2022-08-19T14:21:21;20.10;99.90
44767;DHT22;30487;48.716;9.272;2022-08-19T14:23:48;20.10;99.90
44767;DHT22;30487;48.716;9.272;2022-08-19T14:26:15;20.00;99.90
44767;DHT22;30487;48.716;9.272;2022-08-19T14:28:41;19.90;99.90
44767;DHT22;30487;48.716;9.272;2022-08-19T14:31:14;19.80;99.90
44767;DHT22;30487;48.716;9.272;2022-08-19T14:33:43;19.80;99.90
44767;DHT22;30487;48.716;9.272;2022-08-19T14:36:09;19.80;99.90
44767;DHT22;30487;48.716;9.272;2022-08-19T14:38:34;19.80;99.90
44767;DHT22;30487;48.716;9.272;2022-08-19T14:43:35;19.80;99.90
44767;DHT22;30487;48.716;9.272;2022-08-19T14:46:00;19.80;99.90
44767;DHT22;30487;48.716;9.272;2022-08-19T14:48:26;19.80;99.90
44767;DHT22;30487;48.716;9.272;2022-08-19T14:50:52;19.80;99.90
44767;DHT22;30487;48.716;9.272;2022-08-19T14:53:18;19.90;99.90
44767;DHT22;30487;48.716;9.272;2022-08-19T14:55:44;19.90;99.90
44767;DHT22;30487;48.716;9.272;2022-08-19T14:58:09;20.00;99.90
44767;DHT22;30487;48.716;9.272;2022-08-19T15:00:35;20.10;99.90
44767;DHT22;30487;48.716;9.272;2022-08-19T15:03:01;20.10;99.90
44767;DHT22;30487;48.716;9.272;2022-08-19T15:05:26;20.10;99.90
44767;DHT22;30487;48.716;9.272;2022-08-19T15:07:52;20.20;99.90
44767;DHT22;30487;48.716;9.272;2022-08-19T15:10:19;20.20;99.90
44767;DHT22;30487;48.716;9.272;2022-08-19T15:12:49;20.10;99.90
44767;DHT22;30487;48.716;9.272;2022-08-19T15:15:15;20.10;99.90
44767;DHT22;30487;48.716;9.272;2022-08-19T15:17:43;20.10;99.90
44767;DHT22;30487;48.716;9.272;2022-08-19T15:20:09;20.00;99.90
44767;DHT22;30487;48.716;9.272;2022-08-19T15:22:35;20.00;99.90
44767;DHT22;30487;48.716;9.272;2022-08-19T15:25:01;20.10;99.90
44767;DHT22;30487;48.716;9.272;2022-08-19T15:27:26;20.20;99.90
44767;DHT22;30487;48.716;9.272;2022-08-19T15:29:52;20.30;99.90
44767;DHT22;30487;48.716;9.272;2022-08-19T15:32:17;20.40;99.90
44767;DHT22;30487;48.716;9.272;2022-08-19T15:34:44;20.60;99.90
44767;DHT22;30487;48.716;9.272;2022-08-19T15:37:10;20.80;99.90
44767;DHT22;30487;48.716;9.272;2022-08-19T15:39:36;20.90;99.90
44767;DHT22;30487;48.716;9.272;2022-08-19T15:42:01;21.10;99.90
44767;DHT22;30487;48.716;9.272;2022-08-19T15:44:28;21.30;99.90
44767;DHT22;30487;48.716;9.272;2022-08-19T15:46:54;21.40;99.90
44767;DHT22;30487;48.716;9.272;2022-08-19T15:49:19;21.50;99.90